createdAt,value
2019-04-20T00:00:46.073Z,6.80
2019-04-20T00:03:11.640Z,10.53
2019-04-20T00:05:39.279Z,9.23
2019-04-20T00:08:12.757Z,6.80
2019-04-20T00:10:48.740Z,12.23
2019-04-20T00:13:19.424Z,7.20
2019-04-20T00:15:36.761Z,7.70
2019-04-20T00:18:06.763Z,7.50
2019-04-20T00:20:37.177Z,8.10
2019-04-20T00:23:33.779Z,6.00
2019-04-20T00:26:24.923Z,9.53
2019-04-20T00:29:00.317Z,7.63
2019-04-20T00:31:29.739Z,6.50
2019-04-20T00:33:55.863Z,6.43
2019-04-20T00:36:13.897Z,6.93
2019-04-20T00:38:48.384Z,6.70
2019-04-20T00:41:14.213Z,11.70
2019-04-20T00:43:42.241Z,8.57
2019-04-20T00:46:18.348Z,7.20
2019-04-20T00:48:50.668Z,6.37
2019-04-20T00:51:40.491Z,6.80
2019-04-20T00:53:44.971Z,7.23
2019-04-20T00:56:09.986Z,5.67
2019-04-20T00:58:53.543Z,6.17
2019-04-20T01:01:25.166Z,6.53
2019-04-20T01:03:52.239Z,6.33
2019-04-20T01:06:36.611Z,5.03
2019-04-20T01:09:01.537Z,6.43
2019-04-20T01:11:36.829Z,6.07
2019-04-20T01:14:04.670Z,6.03
2019-04-20T01:16:38.885Z,5.90
2019-04-20T01:18:59.391Z,6.93
2019-04-20T01:21:29.844Z,7.50
2019-04-20T01:24:01.554Z,5.93
2019-04-20T01:26:27.393Z,5.53
2019-04-20T01:29:09.021Z,6.03
2019-04-20T01:31:33.972Z,8.30
2019-04-20T01:34:03.009Z,5.50
2019-04-20T01:36:40.688Z,5.57
2019-04-20T01:39:06.693Z,6.47
2019-04-20T01:41:22.499Z,5.70
2019-04-20T01:43:50.195Z,5.00
2019-04-20T01:46:23.090Z,5.77
2019-04-20T01:48:48.103Z,6.27
2019-04-20T01:51:21.301Z,5.90
2019-04-20T01:54:06.957Z,4.90
2019-04-20T01:56:33.915Z,5.07
2019-04-20T01:59:19.999Z,5.47
2019-04-20T02:01:59.282Z,6.33
2019-04-20T02:04:35.972Z,5.20
2019-04-20T02:07:03.853Z,5.57
2019-04-20T02:09:32.708Z,5.40
2019-04-20T02:12:10.311Z,5.23
2019-04-20T02:14:40.516Z,7.90
2019-04-20T02:17:09.564Z,5.53
2019-04-20T02:19:42.736Z,6.40
2019-04-20T02:22:13.542Z,8.80
2019-04-20T02:24:29.964Z,5.80
2019-04-20T02:26:57.923Z,6.57
2019-04-20T02:29:47.458Z,6.33
2019-04-20T02:32:23.960Z,6.17
2019-04-20T02:34:59.804Z,6.63
2019-04-20T02:37:58.503Z,5.70
2019-04-20T02:42:53.378Z,6.70
2019-04-20T02:45:17.417Z,6.20
2019-04-20T02:50:15.294Z,5.53
2019-04-20T02:55:14.614Z,7.73
2019-04-20T02:57:47.277Z,5.93
2019-04-20T03:02:23.633Z,7.70
2019-04-20T03:04:45.256Z,5.80
2019-04-20T03:07:19.237Z,11.53
2019-04-20T03:09:54.384Z,5.17
2019-04-20T03:12:28.858Z,6.23
2019-04-20T03:14:47.831Z,7.60
2019-04-20T03:17:30.033Z,4.70
2019-04-20T03:19:51.262Z,4.90
2019-04-20T03:22:36.501Z,5.17
2019-04-20T03:24:55.410Z,5.47
2019-04-20T03:27:33.026Z,5.73
2019-04-20T03:31:04.075Z,5.60
2019-04-20T03:33:12.679Z,10.93
2019-04-20T03:35:22.487Z,5.60
2019-04-20T03:37:52.883Z,5.87
2019-04-20T03:40:19.303Z,6.20
2019-04-20T03:42:30.928Z,6.87
2019-04-20T03:45:06.012Z,6.33
2019-04-20T03:47:38.785Z,12.13
2019-04-20T03:50:24.953Z,6.43
2019-04-20T03:52:51.331Z,6.00
2019-04-20T03:55:28.720Z,5.60
2019-04-20T03:58:10.743Z,5.60
2019-04-20T04:00:57.275Z,5.47
2019-04-20T04:06:05.434Z,7.60
2019-04-20T04:08:30.936Z,6.13
2019-04-20T04:11:12.306Z,6.63
2019-04-20T04:13:23.015Z,6.50
2019-04-20T04:15:57.558Z,5.80
2019-04-20T04:18:28.052Z,6.20
2019-04-20T04:20:57.306Z,6.77
2019-04-20T04:23:36.616Z,6.50
2019-04-20T04:26:12.944Z,8.43
2019-04-20T04:28:37.337Z,5.93
2019-04-20T04:31:07.939Z,6.00
2019-04-20T04:36:00.586Z,6.43
2019-04-20T04:38:37.393Z,5.50
2019-04-20T04:43:36.305Z,5.57
2019-04-20T04:45:45.284Z,5.83
2019-04-20T04:48:18.954Z,5.80
2019-04-20T04:50:47.494Z,6.10
2019-04-20T04:53:25.052Z,5.50
2019-04-20T04:55:47.734Z,6.17
2019-04-20T04:58:12.762Z,7.27
2019-04-20T05:00:40.797Z,5.90
2019-04-20T05:03:27.012Z,6.10
2019-04-20T05:06:13.341Z,6.03
2019-04-20T05:08:34.738Z,5.20
2019-04-20T05:10:56.304Z,5.83
2019-04-20T05:13:26.735Z,5.30
2019-04-20T05:16:08.118Z,5.30
2019-04-20T05:18:45.085Z,5.40
2019-04-20T05:21:25.627Z,4.90
2019-04-20T05:24:06.174Z,5.73
2019-04-20T05:27:03.060Z,5.57
2019-04-20T05:29:14.471Z,5.03
2019-04-20T05:31:45.977Z,5.90
2019-04-20T05:34:25.792Z,3.93
2019-04-20T05:36:50.585Z,4.57
2019-04-20T05:39:26.974Z,8.57
2019-04-20T05:41:53.199Z,10.33
2019-04-20T05:44:22.094Z,9.67
2019-04-20T05:47:03.027Z,11.40
2019-04-20T05:49:33.082Z,10.60
2019-04-20T05:51:56.033Z,8.80
2019-04-20T05:54:27.745Z,10.20
2019-04-20T05:57:00.597Z,9.57
2019-04-20T05:59:26.125Z,12.07
2019-04-20T06:01:57.693Z,7.40
2019-04-20T06:04:40.037Z,7.97
2019-04-20T06:06:56.500Z,5.70
2019-04-20T06:09:28.682Z,6.33
2019-04-20T06:12:07.803Z,6.40
2019-04-20T06:14:41.511Z,6.70
2019-04-20T06:17:31.994Z,8.90
2019-04-20T06:20:09.037Z,7.97
2019-04-20T06:22:42.797Z,9.33
2019-04-20T06:25:33.389Z,8.47
2019-04-20T06:27:49.273Z,7.67
2019-04-20T06:30:06.881Z,8.43
2019-04-20T06:33:25.180Z,8.93
2019-04-20T06:36:15.097Z,8.43
2019-04-20T06:38:38.324Z,8.80
2019-04-20T06:40:59.421Z,8.90
2019-04-20T06:43:18.055Z,9.03
2019-04-20T06:45:51.294Z,8.47
2019-04-20T06:48:21.465Z,8.60
2019-04-20T06:50:44.114Z,11.53
2019-04-20T06:53:46.962Z,9.20
2019-04-20T06:56:05.312Z,12.27
2019-04-20T06:58:46.359Z,10.27
2019-04-20T07:01:02.187Z,10.17
2019-04-20T07:03:42.322Z,13.37
2019-04-20T07:06:24.952Z,12.93
2019-04-20T07:08:48.868Z,10.83
2019-04-20T07:11:04.348Z,11.67
2019-04-20T07:13:22.976Z,13.07
2019-04-20T07:15:57.177Z,11.87
2019-04-20T07:18:35.778Z,14.23
2019-04-20T07:21:22.965Z,10.03
2019-04-20T07:23:48.288Z,10.20
2019-04-20T07:26:16.954Z,15.57
2019-04-20T07:28:47.316Z,10.53
2019-04-20T07:31:17.282Z,10.50
2019-04-20T07:33:46.338Z,12.23
2019-04-20T07:36:22.747Z,9.77
2019-04-20T07:39:05.567Z,12.67
2019-04-20T07:41:08.723Z,18.10
2019-04-20T07:43:57.383Z,9.53
2019-04-20T07:46:33.160Z,11.13
2019-04-20T07:48:42.365Z,11.17
2019-04-20T07:51:02.668Z,13.30
2019-04-20T07:53:34.391Z,11.20
2019-04-20T07:56:12.578Z,10.30
2019-04-20T07:58:30.706Z,13.60
2019-04-20T08:01:23.796Z,9.23
2019-04-20T08:04:01.393Z,12.73
2019-04-20T08:06:23.441Z,8.57
2019-04-20T08:08:58.627Z,8.10
2019-04-20T08:11:36.887Z,10.53
2019-04-20T08:14:07.351Z,8.10
2019-04-20T08:16:51.758Z,15.90
2019-04-20T08:19:07.938Z,8.60
2019-04-20T08:21:38.703Z,8.37
2019-04-20T08:24:02.913Z,7.73
2019-04-20T08:26:21.456Z,9.20
2019-04-20T08:29:01.187Z,9.07
2019-04-20T08:32:08.489Z,9.83
2019-04-20T08:34:44.383Z,8.33
2019-04-20T08:37:07.131Z,7.80
2019-04-20T08:39:45.375Z,11.70
2019-04-20T08:42:05.843Z,9.87
2019-04-20T08:47:24.193Z,8.07
2019-04-20T08:49:57.122Z,9.97
2019-04-20T08:52:38.175Z,11.80
2019-04-20T08:54:31.295Z,13.03
2019-04-20T08:56:51.732Z,10.03
2019-04-20T08:59:14.055Z,12.63
2019-04-20T09:01:42.660Z,11.97
2019-04-20T09:04:17.763Z,10.73
2019-04-20T09:06:53.385Z,11.60
2019-04-20T09:09:37.926Z,10.20
2019-04-20T09:12:17.978Z,9.17
2019-04-20T09:14:20.938Z,10.50
2019-04-20T09:16:58.196Z,13.40
2019-04-20T09:19:29.946Z,9.03
2019-04-20T09:22:12.185Z,11.83
2019-04-20T09:24:51.118Z,10.63
2019-04-20T09:27:08.686Z,10.43
2019-04-20T09:29:36.805Z,11.03
2019-04-20T09:32:18.227Z,13.70
2019-04-20T09:34:53.285Z,8.33
2019-04-20T09:37:32.104Z,9.03
2019-04-20T09:40:22.102Z,12.33
2019-04-20T09:42:57.745Z,13.10
2019-04-20T09:45:49.880Z,8.27
2019-04-20T09:48:23.347Z,9.00
2019-04-20T09:51:03.855Z,7.97
2019-04-20T09:53:24.553Z,9.90
2019-04-20T09:56:04.570Z,8.17
2019-04-20T09:58:25.710Z,12.17
2019-04-20T10:00:58.217Z,14.43
2019-04-20T10:03:13.255Z,6.83
2019-04-20T10:05:41.279Z,7.67
2019-04-20T10:08:10.061Z,6.00
2019-04-20T10:10:42.661Z,6.93
2019-04-20T10:13:09.180Z,5.47
2019-04-20T10:15:37.544Z,6.30
2019-04-20T10:18:05.795Z,6.57
2019-04-20T10:20:36.528Z,5.90
2019-04-20T10:23:02.698Z,8.03
2019-04-20T10:25:30.873Z,6.53
2019-04-20T10:27:58.774Z,5.97
2019-04-20T10:30:26.390Z,7.37
2019-04-20T10:32:55.707Z,6.33
2019-04-20T10:35:23.432Z,7.63
2019-04-20T10:37:55.677Z,5.90
2019-04-20T10:40:39.079Z,5.43
2019-04-20T10:42:53.571Z,5.57
2019-04-20T10:45:21.621Z,5.60
2019-04-20T10:47:50.751Z,4.63
2019-04-20T10:50:18.823Z,5.70
2019-04-20T10:52:47.649Z,7.83
2019-04-20T10:55:16.513Z,5.33
2019-04-20T10:57:45.782Z,9.03
2019-04-20T11:00:15.470Z,7.60
2019-04-20T11:02:45.780Z,7.67
2019-04-20T11:05:12.785Z,11.03
2019-04-20T11:07:40.844Z,5.90
2019-04-20T11:10:16.622Z,5.27
2019-04-20T11:12:38.167Z,9.63
2019-04-20T11:15:06.568Z,5.10
2019-04-20T11:17:35.271Z,5.97
2019-04-20T11:20:03.611Z,4.93
2019-04-20T11:22:32.553Z,6.23
2019-04-20T11:25:00.373Z,5.70
2019-04-20T11:27:28.086Z,14.43
2019-04-20T11:29:56.065Z,9.50
2019-04-20T11:32:24.208Z,5.67
2019-04-20T11:34:51.800Z,4.50
2019-04-20T11:37:19.611Z,5.60
2019-04-20T11:39:47.328Z,4.20
2019-04-20T11:42:15.000Z,4.93
2019-04-20T11:44:42.672Z,5.57
2019-04-20T11:47:10.721Z,5.47
2019-04-20T11:49:39.347Z,5.17
2019-04-20T11:52:07.728Z,5.83
2019-04-20T11:54:36.356Z,7.80
2019-04-20T11:57:04.038Z,7.13
2019-04-20T11:59:32.719Z,10.27
2019-04-20T12:02:25.366Z,4.53
2019-04-20T12:05:06.328Z,5.10
2019-04-20T12:07:22.614Z,17.77
2019-04-20T12:09:51.437Z,5.20
2019-04-20T12:12:29.996Z,6.80
2019-04-20T12:14:48.604Z,7.83
2019-04-20T12:17:16.079Z,6.90
2019-04-20T12:19:43.912Z,12.00
2019-04-20T12:22:11.938Z,4.47
2019-04-20T12:24:40.337Z,8.30
2019-04-20T12:27:09.020Z,4.03
2019-04-20T12:29:38.616Z,4.40
2019-04-20T12:32:07.590Z,3.90
2019-04-20T12:34:37.105Z,5.00
2019-04-20T12:37:05.032Z,17.37
2019-04-20T12:39:33.236Z,5.40
2019-04-20T12:42:04.775Z,6.70
2019-04-20T12:44:30.293Z,8.37
2019-04-20T12:46:59.539Z,5.23
2019-04-20T12:49:27.603Z,8.00
2019-04-20T12:51:59.454Z,4.50
2019-04-20T12:54:24.942Z,5.80
2019-04-20T12:56:53.037Z,4.10
2019-04-20T12:59:21.669Z,4.93
2019-04-20T13:01:51.268Z,4.43
2019-04-20T13:04:18.844Z,4.87
2019-04-20T13:06:46.978Z,6.63
2019-04-20T13:09:14.657Z,3.83
2019-04-20T13:11:57.362Z,5.90
2019-04-20T13:15:00.264Z,4.60
2019-04-20T13:17:28.315Z,4.57
2019-04-20T13:19:57.385Z,5.00
2019-04-20T13:22:25.353Z,4.97
2019-04-20T13:24:53.314Z,4.60
2019-04-20T13:27:20.959Z,3.80
2019-04-20T13:29:50.837Z,3.87
2019-04-20T13:32:18.199Z,5.57
2019-04-20T13:34:46.555Z,4.20
2019-04-20T13:37:14.176Z,4.83
2019-04-20T13:39:42.721Z,4.27
2019-04-20T13:42:18.672Z,4.33
2019-04-20T13:44:41.119Z,4.03
2019-04-20T13:47:09.181Z,3.83
2019-04-20T13:49:36.903Z,4.80
2019-04-20T13:52:04.613Z,3.73
2019-04-20T13:54:32.515Z,3.47
2019-04-20T13:57:01.986Z,4.17
2019-04-20T13:59:35.169Z,4.00
2019-04-20T14:02:38.591Z,3.20
2019-04-20T14:05:06.775Z,3.00
2019-04-20T14:07:35.659Z,3.30
2019-04-20T14:10:05.845Z,3.43
2019-04-20T14:12:37.562Z,3.37
2019-04-20T14:15:05.070Z,4.93
2019-04-20T14:17:33.021Z,3.10
2019-04-20T14:20:06.913Z,3.50
2019-04-20T14:22:31.322Z,4.13
2019-04-20T14:24:59.136Z,4.83
2019-04-20T14:27:26.707Z,5.10
2019-04-20T14:29:55.165Z,3.57
2019-04-20T14:32:22.949Z,3.40
2019-04-20T14:34:51.192Z,3.30
2019-04-20T14:37:18.851Z,3.40
2019-04-20T14:39:47.725Z,3.33
2019-04-20T14:42:26.862Z,3.83
2019-04-20T14:44:45.968Z,3.17
2019-04-20T14:47:13.902Z,3.50
2019-04-20T14:49:42.902Z,3.27
2019-04-20T14:52:11.477Z,3.23
2019-04-20T14:54:39.443Z,3.77
2019-04-20T14:57:07.707Z,3.10
2019-04-20T14:59:38.954Z,4.47
2019-04-20T15:02:10.531Z,3.73
2019-04-20T15:04:39.047Z,3.10
2019-04-20T15:07:06.796Z,3.10
2019-04-20T15:09:37.028Z,2.93
2019-04-20T15:12:04.579Z,3.53
2019-04-20T15:14:32.398Z,2.87
2019-04-20T15:17:00.641Z,3.13
2019-04-20T15:19:43.263Z,5.00
2019-04-20T15:22:32.120Z,3.77
2019-04-20T15:25:00.030Z,8.47
2019-04-20T15:27:28.260Z,4.43
2019-04-20T15:29:56.177Z,3.17
2019-04-20T15:32:25.028Z,3.50
2019-04-20T15:34:55.058Z,4.40
2019-04-20T15:37:23.449Z,3.50
2019-04-20T15:39:50.925Z,7.33
2019-04-20T15:42:19.201Z,3.50
2019-04-20T15:44:47.244Z,3.40
2019-04-20T15:47:15.396Z,5.87
2019-04-20T15:49:44.238Z,5.93
2019-04-20T15:52:17.855Z,3.60
2019-04-20T15:54:41.363Z,5.53
2019-04-20T15:57:14.980Z,3.37
2019-04-20T15:59:38.514Z,4.53
2019-04-20T16:02:25.180Z,3.53
2019-04-20T16:05:10.695Z,3.30
2019-04-20T16:07:46.825Z,4.83
2019-04-20T16:10:09.541Z,6.30
2019-04-20T16:12:38.480Z,2.83
2019-04-20T16:15:07.484Z,3.50
2019-04-20T16:17:39.008Z,3.80
2019-04-20T16:20:09.081Z,2.50
2019-04-20T16:22:34.656Z,2.90
2019-04-20T16:25:15.512Z,3.43
2019-04-20T16:27:43.543Z,3.90
2019-04-20T16:30:11.687Z,3.47
2019-04-20T16:32:40.557Z,3.70
2019-04-20T16:35:08.690Z,4.63
2019-04-20T16:37:36.666Z,4.20
2019-04-20T16:40:06.115Z,2.77
2019-04-20T16:42:38.510Z,4.80
2019-04-20T16:45:07.358Z,4.43
2019-04-20T16:47:36.643Z,3.43
2019-04-20T16:50:04.765Z,4.20
2019-04-20T16:52:32.801Z,3.47
2019-04-20T16:55:02.025Z,3.73
2019-04-20T16:57:31.861Z,2.53
2019-04-20T17:00:01.319Z,3.57
2019-04-20T17:02:31.925Z,3.83
2019-04-20T17:05:00.862Z,2.43
2019-04-20T17:07:35.516Z,3.13
2019-04-20T17:10:04.221Z,3.10
2019-04-20T17:12:33.626Z,4.43
2019-04-20T17:15:01.817Z,2.30
2019-04-20T17:17:29.591Z,3.43
2019-04-20T17:19:57.687Z,3.03
2019-04-20T17:22:25.545Z,5.67
2019-04-20T17:24:53.779Z,2.47
2019-04-20T17:27:41.289Z,3.63
2019-04-20T17:30:42.118Z,3.20
2019-04-20T17:33:11.736Z,2.60
2019-04-20T17:35:52.848Z,6.90
2019-04-20T17:38:09.004Z,2.83
2019-04-20T17:40:55.651Z,3.03
2019-04-20T17:43:16.025Z,2.73
2019-04-20T17:45:43.198Z,3.17
2019-04-20T17:48:18.922Z,2.40
2019-04-20T17:50:55.682Z,2.03
2019-04-20T17:53:27.789Z,2.20
2019-04-20T17:55:51.057Z,5.77
2019-04-20T17:58:23.205Z,2.60
2019-04-20T18:01:20.427Z,1.90
2019-04-20T18:04:13.967Z,2.27
2019-04-20T18:06:30.489Z,2.80
2019-04-20T18:08:56.156Z,3.03
2019-04-20T18:11:11.537Z,7.73
2019-04-20T18:13:36.089Z,2.90
2019-04-20T18:16:29.627Z,4.17
2019-04-20T18:19:15.309Z,2.47
2019-04-20T18:21:41.669Z,2.67
2019-04-20T18:24:14.505Z,2.37
2019-04-20T18:27:01.002Z,2.50
2019-04-20T18:29:32.253Z,2.50
2019-04-20T18:31:47.240Z,2.20
2019-04-20T18:34:26.984Z,2.70
2019-04-20T18:36:54.618Z,2.43
2019-04-20T18:39:29.111Z,2.67
2019-04-20T18:41:57.124Z,2.80
2019-04-20T18:44:27.728Z,3.43
2019-04-20T18:47:15.205Z,3.17
2019-04-20T18:49:36.043Z,2.63
2019-04-20T18:51:51.652Z,2.73
2019-04-20T18:54:23.975Z,2.70
2019-04-20T18:56:52.538Z,3.00
2019-04-20T18:59:22.786Z,2.90
2019-04-20T19:01:50.811Z,3.67
2019-04-20T19:04:19.695Z,3.03
2019-04-20T19:06:47.969Z,2.50
2019-04-20T19:09:21.623Z,2.60
2019-04-20T19:11:52.542Z,2.60
2019-04-20T19:14:49.500Z,2.60
2019-04-20T19:17:45.136Z,6.53
2019-04-20T19:20:26.932Z,2.07
2019-04-20T19:22:53.414Z,3.13
2019-04-20T19:25:27.421Z,4.70
2019-04-20T19:27:55.517Z,2.57
2019-04-20T19:30:31.580Z,2.73
2019-04-20T19:33:10.846Z,3.17
2019-04-20T19:35:33.607Z,3.00
2019-04-20T19:37:58.407Z,5.43
2019-04-20T19:40:36.051Z,2.60
2019-04-20T19:43:03.998Z,3.00
2019-04-20T19:45:42.642Z,2.70
2019-04-20T19:48:04.724Z,5.37
2019-04-20T19:50:54.693Z,3.53
2019-04-20T19:53:15.053Z,5.40
2019-04-20T19:55:31.790Z,3.13
2019-04-20T19:58:02.532Z,3.73
2019-04-20T20:00:22.520Z,6.17
2019-04-20T20:02:51.912Z,3.57
2019-04-20T20:05:30.411Z,4.50
2019-04-20T20:07:52.750Z,3.20
2019-04-20T20:10:20.870Z,3.20
2019-04-20T20:12:55.316Z,4.57
2019-04-20T20:15:27.463Z,3.30
2019-04-20T20:18:07.190Z,6.37
2019-04-20T20:20:35.596Z,4.90
2019-04-20T20:22:50.420Z,4.53
2019-04-20T20:25:17.002Z,4.17
2019-04-20T20:27:51.202Z,3.77
2019-04-20T20:30:23.390Z,4.00
2019-04-20T20:33:01.527Z,3.40
2019-04-20T20:35:23.043Z,4.00
2019-04-20T20:37:51.643Z,6.93
2019-04-20T20:40:18.931Z,4.40
2019-04-20T20:42:58.091Z,4.00
2019-04-20T20:45:22.719Z,3.70
2019-04-20T20:48:00.007Z,3.40
2019-04-20T20:50:32.585Z,3.87
2019-04-20T20:52:57.578Z,3.80
2019-04-20T20:55:24.694Z,3.23
2019-04-20T20:57:49.494Z,4.10
2019-04-20T21:00:24.151Z,3.90
2019-04-20T21:02:47.148Z,4.37
2019-04-20T21:05:11.570Z,4.30
2019-04-20T21:07:40.515Z,3.97
2019-04-20T21:10:10.272Z,4.17
2019-04-20T21:12:43.678Z,10.20
2019-04-20T21:15:15.123Z,4.80
2019-04-20T21:18:03.385Z,4.80
2019-04-20T21:20:20.422Z,4.40
2019-04-20T21:22:55.741Z,4.53
2019-04-20T21:25:11.212Z,3.43
2019-04-20T21:27:39.107Z,4.30
2019-04-20T21:30:15.570Z,3.67
2019-04-20T21:32:43.706Z,4.47
2019-04-20T21:35:12.822Z,3.73
2019-04-20T21:37:43.405Z,7.57
2019-04-20T21:40:22.364Z,3.50
2019-04-20T21:42:44.311Z,6.60
2019-04-20T21:45:15.822Z,3.20
2019-04-20T21:47:40.914Z,3.67
2019-04-20T21:50:27.089Z,3.40
2019-04-20T21:52:43.025Z,3.50
2019-04-20T21:55:07.909Z,7.87
2019-04-20T21:57:42.135Z,4.43
2019-04-20T22:00:14.800Z,4.40
2019-04-20T22:02:48.848Z,6.97
2019-04-20T22:05:09.411Z,5.03
2019-04-20T22:07:37.012Z,7.60
2019-04-20T22:10:05.087Z,12.60
2019-04-20T22:12:38.443Z,7.60
2019-04-20T22:15:09.222Z,7.57
2019-04-20T22:17:35.467Z,7.90
2019-04-20T22:20:12.069Z,9.23
2019-04-20T22:22:47.161Z,8.10
2019-04-20T22:25:16.165Z,5.43
2019-04-20T22:27:34.844Z,4.10
2019-04-20T22:30:02.043Z,5.40
2019-04-20T22:32:30.106Z,8.17
2019-04-20T22:35:03.231Z,4.50
2019-04-20T22:37:34.820Z,4.27
2019-04-20T22:40:03.348Z,4.00
2019-04-20T22:42:37.896Z,3.60
2019-04-20T22:45:06.452Z,4.27
2019-04-20T22:47:32.694Z,9.13
2019-04-20T22:50:20.276Z,4.13
2019-04-20T22:52:42.940Z,4.20
2019-04-20T22:55:22.407Z,4.37
2019-04-20T22:57:43.299Z,7.87
2019-04-20T23:00:06.535Z,9.47
2019-04-20T23:02:29.877Z,6.93
2019-04-20T23:04:57.919Z,5.23
2019-04-20T23:07:26.462Z,5.57
2019-04-20T23:09:57.725Z,5.20
2019-04-20T23:12:25.699Z,5.17
2019-04-20T23:14:54.220Z,3.90
2019-04-20T23:17:30.405Z,5.50
2019-04-20T23:19:56.135Z,5.07
2019-04-20T23:22:21.319Z,4.67
2019-04-20T23:24:49.458Z,4.63
2019-04-20T23:27:23.517Z,5.37
2019-04-20T23:29:46.960Z,5.20
2019-04-20T23:32:16.372Z,8.03
2019-04-20T23:34:44.752Z,13.10
2019-04-20T23:37:17.041Z,5.37
2019-04-20T23:39:45.013Z,9.60
2019-04-20T23:42:16.120Z,5.10
2019-04-20T23:45:09.334Z,8.43
2019-04-20T23:47:57.444Z,6.27
2019-04-20T23:50:40.910Z,6.33
2019-04-20T23:53:10.415Z,5.70
2019-04-20T23:55:19.025Z,8.37
2019-04-20T23:57:55.900Z,7.83
